Cottonwood Airport (P52)
Cottonwood, AZ
Field Elevation: 3562
Lat: 34°43.80N  Long: 112°02.10W
CTAF/Unicom Freq: 122.7000
   
    
Weather Advisories
2020-07-08   22:26 Z
Altimeter 29.93" Hg
Wind 190° @ 14 KT
Gusts 20 KT
Visibility 10 SM
Temperature 38° C (100° F)
Dewpoint 2° C (36° F)
Relative Humidity 11%
Density Altitude 6,800 feet
Condensation Altitude 21,300 feet
Heat Index: 35° C (95° F)
Wind and Runways
Indicated Runway = 14
Headwind = 9 kt
Crosswind = 11 kt
History
 
 
 
More Info
NOAA Forecast
 
 
About Us
Belfort Instrument
 
 
FAA Disclaimer: The data displayed is for advisory purposes only and is not to be used for flight planning or operations. For official data, please call (not available) to hear the current automated AWOS voice message.
  METAR P52 082226Z AUTO 19014G20KT 10 SM 38/02 A2993